Time;durP1;ratioP1;P1;durP2;ratioP2;P2;SDS_P1;SDS_P2;PMS_P1;PMS_P2;Temp;Humidity;BMP_temperature;BMP_pressure;BME280_temperature;BME280_humidity;BME280_pressure;Samples;Min_cycle;Max_cycle;Signal;HPM_P1;HPM_P2
2021/01/16 00:03:10;;;;;;;38.45;19.05;;;-2.60;99.90;;;;;;8359147;28;20125;-67
2021/01/16 00:07:10;;;;;;;38.22;18.02;;;-2.60;99.90;;;;;;8359799;28;20063;-67
2021/01/16 00:11:11;;;;;;;40.80;18.75;;;-2.50;99.90;;;;;;8360722;28;20037;-67
2021/01/16 00:15:12;;;;;;;41.55;19.27;;;-2.50;99.90;;;;;;8360356;28;20037;-67
2021/01/16 00:19:12;;;;;;;38.85;18.85;;;-2.40;99.90;;;;;;8360680;28;20044;-67
2021/01/16 00:23:13;;;;;;;38.58;18.25;;;-2.50;99.90;;;;;;8360386;28;20107;-67
2021/01/16 00:27:14;;;;;;;40.58;19.70;;;-2.50;99.90;;;;;;8360471;28;20032;-67
2021/01/16 00:31:15;;;;;;;40.20;19.63;;;-2.60;99.90;;;;;;8360136;28;20029;-67
2021/01/16 00:35:16;;;;;;;36.60;18.27;;;-2.50;99.90;;;;;;8358642;28;20470;-67
2021/01/16 00:39:17;;;;;;;38.30;17.88;;;-2.50;99.90;;;;;;8358969;28;20036;-67
2021/01/16 00:43:18;;;;;;;34.33;18.08;;;-2.70;99.90;;;;;;8358339;28;20491;-67
2021/01/16 00:47:18;;;;;;;38.47;18.50;;;-2.50;99.90;;;;;;8359616;28;20061;-67
2021/01/16 00:51:19;;;;;;;40.42;18.35;;;-2.70;99.90;;;;;;8359195;28;20427;-68
2021/01/16 00:55:19;;;;;;;37.15;17.88;;;-2.90;99.90;;;;;;8359098;28;20043;-67
2021/01/16 00:59:20;;;;;;;40.42;19.02;;;-3.10;99.90;;;;;;8357448;28;20025;-67
2021/01/16 01:03:22;;;;;;;43.10;17.98;;;-2.70;99.90;;;;;;8357033;28;20529;-67
2021/01/16 01:07:22;;;;;;;37.65;17.95;;;-2.80;99.90;;;;;;8357047;28;20036;-67
2021/01/16 01:11:23;;;;;;;32.90;16.80;;;-2.80;99.90;;;;;;8358544;28;20387;-67
2021/01/16 01:15:24;;;;;;;44.72;19.73;;;-2.60;99.90;;;;;;8357297;28;20068;-67
2021/01/16 01:19:24;;;;;;;35.65;18.20;;;-2.50;99.90;;;;;;8357822;28;20036;-67
2021/01/16 01:23:25;;;;;;;40.88;19.02;;;-2.50;99.90;;;;;;8358141;28;20106;-67
2021/01/16 01:27:26;;;;;;;37.45;18.92;;;-2.60;99.90;;;;;;8358150;28;20033;-67
2021/01/16 01:31:26;;;;;;;36.28;17.98;;;-2.70;99.90;;;;;;8356658;28;20020;-67
2021/01/16 01:35:28;;;;;;;39.45;17.20;;;-2.80;99.90;;;;;;8356509;28;20025;-68
2021/01/16 01:39:28;;;;;;;35.80;17.10;;;-2.60;99.90;;;;;;8357425;28;20396;-67
2021/01/16 01:43:29;;;;;;;39.20;18.17;;;-2.60;99.90;;;;;;8357836;28;20029;-67
2021/01/16 01:47:29;;;;;;;40.83;18.02;;;-2.60;99.90;;;;;;8357655;28;20060;-67
2021/01/16 01:51:31;;;;;;;32.55;16.83;;;-2.50;99.90;;;;;;8356274;28;20036;-67
2021/01/16 01:55:33;;;;;;;35.78;17.27;;;-2.70;99.90;;;;;;8357364;28;20025;-67
2021/01/16 01:59:35;;;;;;;37.85;17.80;;;-2.60;99.90;;;;;;8355737;28;20025;-67
2021/01/16 02:03:37;;;;;;;33.13;15.95;;;-2.60;99.90;;;;;;8356268;28;20032;-67
2021/01/16 02:07:38;;;;;;;39.10;17.08;;;-2.60;99.90;;;;;;8356666;28;20021;-67
2021/01/16 02:11:39;;;;;;;36.72;17.58;;;-2.60;99.90;;;;;;8354282;28;20095;-67
2021/01/16 02:16:03;;;;;;;35.50;17.35;;;-2.40;99.90;;;;;;8355730;28;20112;-67
2021/01/16 02:20:07;;;;;;;36.35;17.27;;;-2.50;99.90;;;;;;8356688;28;20557;-67
2021/01/16 02:24:17;;;;;;;34.42;16.92;;;-2.80;99.90;;;;;;8356912;28;20025;-67
2021/01/16 02:28:23;;;;;;;41.03;18.58;;;-2.70;99.90;;;;;;8357005;28;20039;-67
2021/01/16 02:32:24;;;;;;;38.25;18.55;;;-2.90;99.90;;;;;;8362380;28;20037;-67
2021/01/16 02:36:35;;;;;;;36.72;18.52;;;-3.20;99.90;;;;;;8362033;28;20083;-67
2021/01/16 02:40:40;;;;;;;37.75;17.58;;;-3.20;99.90;;;;;;8363348;28;20418;-67
2021/01/16 02:44:58;;;;;;;35.08;17.15;;;-2.80;99.90;;;;;;8363282;28;20063;-67
2021/01/16 02:49:34;;;;;;;39.15;18.08;;;-2.60;99.90;;;;;;8360024;28;20087;-67
2021/01/16 02:53:37;;;;;;;32.95;17.15;;;-2.80;99.90;;;;;;8329630;28;20515;-67
2021/01/16 02:57:38;;;;;;;40.53;18.60;;;-2.80;99.90;;;;;;8366009;28;20475;-67
2021/01/16 03:01:39;;;;;;;35.60;18.98;;;-2.70;99.90;;;;;;8364170;28;20073;-67
2021/01/16 03:05:40;;;;;;;37.60;19.02;;;-2.70;99.90;;;;;;8365802;28;20495;-67
2021/01/16 03:09:41;;;;;;;40.55;19.20;;;-2.60;99.90;;;;;;8365600;28;20033;-67
2021/01/16 03:13:47;;;;;;;37.47;17.83;;;-2.60;99.90;;;;;;8365745;28;20050;-67
2021/01/16 03:17:50;;;;;;;42.78;19.23;;;-2.40;99.90;;;;;;8365325;28;20039;-67
2021/01/16 03:21:50;;;;;;;41.35;18.05;;;-2.50;99.90;;;;;;8365191;28;20028;-67
2021/01/16 03:25:51;;;;;;;40.70;18.95;;;-2.50;99.90;;;;;;8365339;28;20029;-67
2021/01/16 03:29:53;;;;;;;37.88;18.67;;;-2.60;99.90;;;;;;8365017;28;20025;-67
2021/01/16 03:33:53;;;;;;;37.20;17.15;;;-2.60;99.90;;;;;;8363752;28;20025;-67
2021/01/16 03:37:55;;;;;;;39.10;18.38;;;-2.70;99.90;;;;;;8364781;28;20033;-67
2021/01/16 03:41:56;;;;;;;35.22;17.67;;;-2.60;99.90;;;;;;8363742;28;20059;-67
2021/01/16 03:45:56;;;;;;;34.03;16.48;;;-2.80;99.90;;;;;;8363446;28;20128;-67
2021/01/16 03:49:57;;;;;;;41.10;18.38;;;-2.70;99.90;;;;;;8364280;28;20072;-67
2021/01/16 03:53:57;;;;;;;37.67;17.90;;;-2.90;99.90;;;;;;8363063;28;20047;-67
2021/01/16 03:57:58;;;;;;;35.03;16.63;;;-2.80;99.90;;;;;;8363022;28;20021;-67
2021/01/16 04:01:58;;;;;;;37.83;17.52;;;-2.60;99.90;;;;;;8362254;28;20018;-67
2021/01/16 04:05:59;;;;;;;35.47;17.40;;;-2.50;99.90;;;;;;8363994;28;20109;-67
2021/01/16 04:10:00;;;;;;;38.42;18.27;;;-2.70;99.90;;;;;;8363721;28;20025;-68
2021/01/16 04:14:01;;;;;;;38.63;18.42;;;-2.70;99.90;;;;;;8362401;28;20033;-67
2021/01/16 04:18:01;;;;;;;36.45;17.00;;;-2.70;99.90;;;;;;8362563;28;20021;-67
2021/01/16 04:22:03;;;;;;;38.90;18.77;;;-2.70;99.90;;;;;;8362075;28;20132;-67
2021/01/16 04:26:03;;;;;;;37.45;18.40;;;-2.60;99.90;;;;;;8362142;28;20029;-67
2021/01/16 04:30:05;;;;;;;34.20;17.25;;;-2.70;99.90;;;;;;8362092;28;20056;-67
2021/01/16 04:34:05;;;;;;;42.50;19.83;;;-2.70;99.90;;;;;;8361957;28;20033;-67
2021/01/16 04:38:06;;;;;;;36.60;16.98;;;-2.70;99.90;;;;;;8363176;28;20037;-67
2021/01/16 04:42:08;;;;;;;39.05;18.88;;;-2.80;99.90;;;;;;8361988;28;20028;-67
2021/01/16 04:46:10;;;;;;;40.50;18.67;;;-2.80;99.90;;;;;;8362729;28;20082;-67
2021/01/16 04:50:19;;;;;;;33.28;15.80;;;-2.50;99.90;;;;;;8362359;28;20123;-67
2021/01/16 04:54:21;;;;;;;39.45;17.08;;;-2.60;99.90;;;;;;8362467;28;20041;-67
2021/01/16 04:58:23;;;;;;;36.13;16.83;;;-2.70;99.90;;;;;;8362229;28;20115;-67
2021/01/16 05:02:24;;;;;;;38.85;19.33;;;-2.90;99.90;;;;;;8361697;28;20096;-67
2021/01/16 05:06:27;;;;;;;44.20;19.20;;;-2.90;99.90;;;;;;8362167;28;20265;-67
2021/01/16 05:10:41;;;;;;;41.80;18.88;;;-3.00;99.90;;;;;;8361884;28;20032;-67
2021/01/16 05:15:06;;;;;;;37.20;17.05;;;-2.70;99.90;;;;;;8361594;28;20037;-67
2021/01/16 05:19:10;;;;;;;43.00;18.27;;;-2.60;99.90;;;;;;8356299;28;20037;-67
2021/01/16 05:23:12;;;;;;;40.70;18.13;;;-2.70;99.90;;;;;;8361403;28;20029;-67
2021/01/16 05:27:20;;;;;;;42.42;19.13;;;-2.80;99.90;;;;;;8361424;28;20547;-67
2021/01/16 05:31:22;;;;;;;40.88;19.05;;;-2.80;99.90;;;;;;8359925;28;20025;-67
2021/01/16 05:35:23;;;;;;;39.38;18.95;;;-2.70;99.90;;;;;;8361146;28;20458;-67
2021/01/16 05:39:27;;;;;;;40.05;19.42;;;-2.60;99.90;;;;;;8361100;28;20021;-67
2021/01/16 05:43:27;;;;;;;41.22;18.67;;;-2.70;99.90;;;;;;8360858;28;20059;-67
2021/01/16 05:47:31;;;;;;;42.25;19.90;;;-2.60;99.90;;;;;;8360952;28;20472;-66
2021/01/16 05:51:31;;;;;;;37.83;18.48;;;-2.40;99.90;;;;;;8358991;28;20037;-66
2021/01/16 05:55:33;;;;;;;43.05;18.85;;;-2.60;99.90;;;;;;8359135;28;20029;-66
2021/01/16 05:59:37;;;;;;;37.50;18.45;;;-2.70;99.90;;;;;;8358743;28;20051;-66
2021/01/16 06:03:38;;;;;;;40.97;19.25;;;-2.80;99.90;;;;;;8358927;28;20119;-67
2021/01/16 06:07:41;;;;;;;42.63;19.20;;;-2.50;99.90;;;;;;8359061;28;20104;-67
2021/01/16 06:11:48;;;;;;;39.55;19.67;;;-2.70;99.90;;;;;;8358289;28;20040;-67
2021/01/16 06:15:51;;;;;;;43.17;20.33;;;-2.70;99.90;;;;;;8357808;28;20028;-67
2021/01/16 06:19:53;;;;;;;41.00;20.73;;;-2.90;99.90;;;;;;8355286;28;20493;-67
2021/01/16 06:23:58;;;;;;;41.80;19.27;;;-2.60;99.90;;;;;;8358924;28;20498;-67
2021/01/16 06:28:03;;;;;;;37.17;18.33;;;-2.40;99.90;;;;;;8358951;28;20035;-67
2021/01/16 06:32:07;;;;;;;41.67;20.05;;;-2.30;99.90;;;;;;8358286;28;20032;-67
2021/01/16 06:36:07;;;;;;;43.92;20.35;;;-2.60;99.90;;;;;;8358349;28;20159;-67
2021/01/16 06:40:09;;;;;;;39.63;18.20;;;-2.70;99.90;;;;;;8357392;28;20021;-67
2021/01/16 06:44:16;;;;;;;40.53;18.73;;;-2.70;99.90;;;;;;8357790;28;20017;-67
2021/01/16 06:48:16;;;;;;;43.38;19.35;;;-2.50;99.90;;;;;;8358921;28;20033;-67
2021/01/16 06:52:30;;;;;;;38.88;17.88;;;-2.70;99.90;;;;;;8358780;28;20558;-67
2021/01/16 06:56:34;;;;;;;48.55;20.35;;;-2.70;99.90;;;;;;8357304;28;20029;-67
2021/01/16 07:00:35;;;;;;;45.67;20.05;;;-2.80;99.90;;;;;;8358493;28;20039;-67
2021/01/16 07:04:36;;;;;;;43.50;19.23;;;-3.00;99.90;;;;;;8358999;28;20021;-67
2021/01/16 07:08:42;;;;;;;43.22;19.02;;;-2.80;99.90;;;;;;8358135;28;20498;-67
2021/01/16 07:12:48;;;;;;;42.60;19.42;;;-2.80;99.90;;;;;;8358614;28;20025;-67
2021/01/16 07:16:52;;;;;;;44.10;21.42;;;-2.50;99.90;;;;;;8358703;28;20395;-67
2021/01/16 07:20:59;;;;;;;43.15;19.95;;;-2.40;99.90;;;;;;8364576;28;20021;-68
2021/01/16 07:25:01;;;;;;;43.17;19.90;;;-2.50;99.90;;;;;;8361787;28;20044;-67
2021/01/16 07:29:09;;;;;;;45.55;21.10;;;-2.30;99.90;;;;;;8364553;28;20036;-67
2021/01/16 07:33:13;;;;;;;40.78;18.73;;;-2.40;99.90;;;;;;8362105;28;20153;-67
2021/01/16 07:37:17;;;;;;;45.70;20.23;;;-2.40;99.90;;;;;;8382044;28;20040;-68
2021/01/16 07:41:22;;;;;;;44.92;20.20;;;-2.30;99.90;;;;;;8362823;28;20442;-72
2021/01/16 07:45:49;;;;;;;47.75;21.25;;;-2.40;99.90;;;;;;8356594;28;20063;-72
2021/01/16 07:49:55;;;;;;;39.90;17.70;;;-2.30;99.90;;;;;;8366230;28;20511;-72
2021/01/16 07:54:00;;;;;;;42.25;19.70;;;-2.10;99.90;;;;;;8359376;28;20044;-70
2021/01/16 07:58:12;;;;;;;42.28;19.50;;;-2.00;99.90;;;;;;8363263;28;20041;-70
2021/01/16 08:02:30;;;;;;;44.63;20.02;;;-2.00;99.90;;;;;;8363435;28;20029;-70
2021/01/16 08:06:31;;;;;;;46.20;21.90;;;-2.10;99.90;;;;;;8363829;28;20028;-70
2021/01/16 08:10:33;;;;;;;44.80;20.88;;;-2.00;99.90;;;;;;8362353;28;20044;-70
2021/01/16 08:14:34;;;;;;;46.85;21.45;;;-1.90;99.90;;;;;;8354272;28;20027;-68
2021/01/16 08:18:38;;;;;;;45.78;20.98;;;-1.70;99.90;;;;;;8360098;28;20025;-68
2021/01/16 08:22:52;;;;;;;38.30;18.05;;;-1.50;99.90;;;;;;8361535;28;20494;-70
2021/01/16 08:27:00;;;;;;;47.10;21.65;;;-1.40;99.90;;;;;;8357647;28;20053;-68
2021/01/16 08:31:01;;;;;;;45.50;20.40;;;-1.50;99.90;;;;;;8356185;28;20029;-68
2021/01/16 08:35:03;;;;;;;45.47;21.92;;;-1.20;99.90;;;;;;8360917;28;20029;-67
2021/01/16 08:39:26;;;;;;;32.38;14.45;;;-1.30;99.90;;;;;;8356675;28;20025;-69
2021/01/16 08:43:35;;;;;;;45.55;20.75;;;-1.10;99.90;;;;;;8362134;28;20028;-68
2021/01/16 08:47:49;;;;;;;38.83;17.90;;;-1.30;99.90;;;;;;8357837;28;20057;-68
2021/01/16 08:51:53;;;;;;;42.22;17.63;;;-1.30;99.90;;;;;;8385303;28;20056;-69
2021/01/16 08:55:54;;;;;;;52.67;23.02;;;-1.30;99.90;;;;;;8362355;28;20067;-66
2021/01/16 08:59:55;;;;;;;14.32;7.20;;;-1.20;99.90;;;;;;8359998;28;20025;-68
2021/01/16 09:04:18;;;;;;;49.20;21.98;;;-1.20;99.90;;;;;;8356570;28;20029;-68
2021/01/16 09:08:21;;;;;;;60.60;24.42;;;-1.20;99.90;;;;;;8357226;28;20064;-68
2021/01/16 09:12:38;;;;;;;53.83;22.13;;;-1.10;99.90;;;;;;8375640;28;20040;-68
2021/01/16 09:16:39;;;;;;;43.50;18.25;;;-0.90;99.90;;;;;;8356133;28;20412;-69
2021/01/16 09:21:00;;;;;;;54.80;24.00;;;-0.70;99.90;;;;;;8355224;28;20104;-68
2021/01/16 09:25:21;;;;;;;32.15;13.25;;;-0.90;99.90;;;;;;8349730;28;20504;-70
2021/01/16 09:29:27;;;;;;;27.48;11.95;;;-1.00;99.90;;;;;;8347155;28;20415;-70
2021/01/16 09:33:28;;;;;;;49.45;21.25;;;-1.10;99.90;;;;;;8356611;28;20036;-70
2021/01/16 09:37:30;;;;;;;49.17;22.27;;;-1.00;99.90;;;;;;8356001;28;20056;-67
2021/01/16 09:41:33;;;;;;;44.47;20.38;;;-0.60;99.90;;;;;;8359839;28;20075;-70
2021/01/16 09:45:53;;;;;;;47.78;18.40;;;-0.50;99.90;;;;;;8351056;28;20033;-67
2021/01/16 09:50:12;;;;;;;25.13;11.57;;;-0.30;99.90;;;;;;8355393;28;20029;-69
2021/01/16 09:54:14;;;;;;;24.27;10.38;;;-0.50;99.90;;;;;;8359485;28;20017;-69
2021/01/16 09:58:36;;;;;;;48.70;21.50;;;-0.60;99.90;;;;;;8391262;28;20017;-67
2021/01/16 10:02:46;;;;;;;40.55;17.98;;;-0.50;99.90;;;;;;8351147;28;20032;-70
2021/01/16 10:06:48;;;;;;;39.15;17.65;;;-0.30;99.90;;;;;;8358514;28;20503;-68
2021/01/16 10:10:49;;;;;;;23.40;11.05;;;-0.20;99.90;;;;;;8389541;28;20169;-70
2021/01/16 10:14:52;;;;;;;43.83;20.45;;;0.00;99.90;;;;;;8351907;28;20033;-69
2021/01/16 10:19:00;;;;;;;48.60;21.70;;;0.00;99.90;;;;;;8348862;28;20025;-69
2021/01/16 10:23:06;;;;;;;44.70;19.98;;;0.30;99.90;;;;;;8354196;28;20735;-69
2021/01/16 10:27:09;;;;;;;31.58;13.60;;;0.60;99.90;;;;;;8355612;28;20036;-69
2021/01/16 10:31:10;;;;;;;42.00;19.92;;;0.80;99.90;;;;;;8357243;28;20391;-69
2021/01/16 10:35:32;;;;;;;27.45;13.05;;;1.20;99.90;;;;;;8357537;28;20108;-69
2021/01/16 10:39:38;;;;;;;39.63;18.67;;;1.60;99.90;;;;;;8353971;28;20546;-70
2021/01/16 10:43:40;;;;;;;37.08;16.58;;;1.60;99.90;;;;;;8355799;28;20109;-69
2021/01/16 10:47:42;;;;;;;44.60;21.63;;;2.30;99.90;;;;;;8352908;28;20029;-69
2021/01/16 10:52:03;;;;;;;35.60;14.10;;;3.40;99.90;;;;;;8354904;28;20028;-70
2021/01/16 10:56:15;;;;;;;39.17;19.77;;;4.50;99.90;;;;;;8364160;28;20025;-70
2021/01/16 11:00:20;;;;;;;32.17;14.43;;;4.60;99.90;;;;;;8363096;28;20033;-71
2021/01/16 11:04:29;;;;;;;37.75;19.23;;;5.00;99.90;;;;;;8364065;28;20107;-70
2021/01/16 11:08:35;;;;;;;38.28;19.77;;;4.50;99.90;;;;;;8362062;28;20419;-69
2021/01/16 11:12:36;;;;;;;41.08;20.35;;;4.90;99.90;;;;;;8349046;28;20025;-70
2021/01/16 11:16:44;;;;;;;42.10;19.95;;;5.00;99.90;;;;;;8329803;28;20030;-70
2021/01/16 11:20:49;;;;;;;43.42;21.08;;;5.00;99.90;;;;;;8358208;28;20025;-70
2021/01/16 11:24:53;;;;;;;35.67;19.90;;;8.40;99.90;;;;;;8357530;28;20063;-69
2021/01/16 11:28:55;;;;;;;33.95;19.60;;;10.50;91.30;;;;;;8361017;28;20029;-70
2021/01/16 11:33:11;;;;;;;35.17;19.90;;;12.60;78.60;;;;;;8355873;28;20024;-70
2021/01/16 11:37:11;;;;;;;37.17;21.95;;;13.50;68.80;;;;;;8360623;28;20021;-70
2021/01/16 11:41:51;;;;;;;35.38;20.45;;;14.00;64.00;;;;;;8360155;28;20109;-70
2021/01/16 11:46:05;;;;;;;34.47;20.13;;;13.70;62.40;;;;;;8357921;28;20429;-70
2021/01/16 11:50:06;;;;;;;33.25;21.08;;;14.00;61.10;;;;;;8360408;28;20027;-71
2021/01/16 11:54:07;;;;;;;33.75;19.40;;;13.40;60.50;;;;;;8365169;28;20399;-70
2021/01/16 11:58:09;;;;;;;31.60;17.63;;;12.50;62.90;;;;;;8361074;28;20025;-70
2021/01/16 12:02:14;;;;;;;28.05;15.15;;;11.70;65.30;;;;;;8359277;28;20075;-70
2021/01/16 12:06:17;;;;;;;29.70;17.95;;;10.40;67.50;;;;;;8360091;28;20021;-72
2021/01/16 12:10:22;;;;;;;31.17;18.10;;;11.60;66.40;;;;;;8356230;28;20025;-71
2021/01/16 12:14:33;;;;;;;32.83;18.85;;;12.10;62.90;;;;;;8375217;28;20029;-71
2021/01/16 12:18:37;;;;;;;31.35;18.30;;;12.60;64.00;;;;;;8359769;28;20475;-71
2021/01/16 12:22:40;;;;;;;27.05;15.38;;;10.20;66.60;;;;;;8364818;28;20025;-71
2021/01/16 12:26:52;;;;;;;26.45;14.48;;;9.50;71.20;;;;;;8366448;28;20076;-71
2021/01/16 12:30:53;;;;;;;29.55;17.10;;;8.10;73.80;;;;;;8369919;28;20028;-73
2021/01/16 12:34:55;;;;;;;30.25;16.20;;;7.20;79.00;;;;;;8358953;28;20649;-71
2021/01/16 12:38:55;;;;;;;31.80;16.70;;;8.00;77.40;;;;;;8359437;28;20023;-74
2021/01/16 12:42:56;;;;;;;28.48;15.90;;;8.80;75.00;;;;;;8357154;28;20039;-74
2021/01/16 12:46:57;;;;;;;31.08;16.38;;;7.70;76.40;;;;;;8356306;28;20086;-75
2021/01/16 12:50:58;;;;;;;29.42;16.02;;;5.60;83.60;;;;;;8358080;28;20032;-74
2021/01/16 12:55:10;;;;;;;26.27;14.57;;;6.10;83.80;;;;;;8357045;28;20492;-74
2021/01/16 12:59:18;;;;;;;28.50;15.50;;;7.70;80.00;;;;;;8356730;28;20067;-75
2021/01/16 13:03:19;;;;;;;28.00;15.43;;;7.50;78.20;;;;;;8360869;28;20020;-75
2021/01/16 13:07:20;;;;;;;27.15;15.15;;;7.30;78.60;;;;;;8334431;28;20581;-75
2021/01/16 13:11:24;;;;;;;25.65;14.88;;;7.30;79.90;;;;;;8346326;28;20051;-76
2021/01/16 13:15:38;;;;;;;26.23;15.30;;;7.70;77.70;;;;;;8351101;28;20032;-75
2021/01/16 13:19:40;;;;;;;27.65;14.70;;;9.00;74.30;;;;;;8352582;28;20404;-74
2021/01/16 13:23:44;;;;;;;24.15;13.93;;;10.00;69.40;;;;;;8354087;28;20650;-75
2021/01/16 13:27:45;;;;;;;27.05;15.45;;;9.30;70.40;;;;;;8330190;28;20112;-75
2021/01/16 13:31:48;;;;;;;28.10;15.30;;;6.40;79.20;;;;;;8354331;28;20060;-74
2021/01/16 13:35:49;;;;;;;29.77;15.15;;;4.60;87.50;;;;;;8365153;28;20419;-74
2021/01/16 13:39:51;;;;;;;28.50;15.10;;;3.30;92.10;;;;;;8354688;28;20033;-74
2021/01/16 13:43:54;;;;;;;29.02;15.15;;;2.40;95.20;;;;;;8355653;28;20021;-74
2021/01/16 13:48:00;;;;;;;27.33;15.00;;;2.30;97.40;;;;;;8351588;28;20491;-75
2021/01/16 13:52:05;;;;;;;25.83;14.13;;;2.30;99.00;;;;;;8351768;28;20517;-75
2021/01/16 13:56:05;;;;;;;25.63;12.98;;;1.70;99.90;;;;;;8354773;28;20032;-75
2021/01/16 14:00:06;;;;;;;17.42;8.57;;;0.90;99.90;;;;;;8352832;28;20028;-74
2021/01/16 14:04:12;;;;;;;24.67;12.40;;;0.30;99.90;;;;;;8353198;28;20029;-74
2021/01/16 14:08:15;;;;;;;23.33;12.32;;;0.00;99.90;;;;;;8353496;28;20132;-75
2021/01/16 14:12:17;;;;;;;21.45;11.27;;;0.00;99.90;;;;;;8351255;28;20051;-74
2021/01/16 14:16:19;;;;;;;24.88;12.50;;;-0.30;99.90;;;;;;8369447;28;20036;-74
2021/01/16 14:20:33;;;;;;;16.10;7.07;;;-0.60;99.90;;;;;;8356883;28;20144;-74
2021/01/16 14:24:39;;;;;;;22.13;11.52;;;-0.80;99.90;;;;;;8352889;28;20029;-75
2021/01/16 14:28:39;;;;;;;23.25;12.25;;;-0.90;99.90;;;;;;8352917;28;20503;-75
2021/01/16 14:32:40;;;;;;;26.98;11.90;;;-0.90;99.90;;;;;;8352426;28;20078;-74
2021/01/16 14:36:41;;;;;;;19.05;8.18;;;-1.20;99.90;;;;;;8352857;28;20025;-74
2021/01/16 14:40:49;;;;;;;22.17;10.57;;;-1.20;99.90;;;;;;8353277;28;20036;-74
2021/01/16 14:44:58;;;;;;;21.80;11.63;;;;;;;;;;8351104;28;20052;-75
2021/01/16 14:48:59;;;;;;;20.03;9.53;;;-1.40;99.90;;;;;;8358974;28;20060;-74
2021/01/16 14:52:59;;;;;;;18.13;9.40;;;-1.50;99.90;;;;;;8366940;28;20052;-75
2021/01/16 14:57:01;;;;;;;19.45;10.20;;;-1.30;99.90;;;;;;8353585;28;20021;-74
2021/01/16 15:01:05;;;;;;;22.85;10.50;;;-1.40;99.90;;;;;;8352272;28;20041;-74
2021/01/16 15:05:05;;;;;;;20.88;9.93;;;-1.60;99.90;;;;;;8353214;28;20017;-74
2021/01/16 15:09:06;;;;;;;24.00;11.50;;;-1.70;99.90;;;;;;8353429;28;20045;-74
2021/01/16 15:13:07;;;;;;;21.67;8.70;;;-1.90;99.90;;;;;;8351551;28;20017;-74
2021/01/16 15:17:09;;;;;;;23.50;12.95;;;-1.90;99.90;;;;;;8354531;28;20116;-74
2021/01/16 15:21:10;;;;;;;23.33;12.07;;;-2.00;99.90;;;;;;8350419;28;20033;-74
2021/01/16 15:25:11;;;;;;;24.33;10.27;;;-2.20;99.90;;;;;;8353924;28;20395;-73
2021/01/16 15:29:13;;;;;;;20.92;9.57;;;-2.30;99.90;;;;;;8353962;28;21143;-74
2021/01/16 15:33:16;;;;;;;36.60;16.38;;;-2.30;99.90;;;;;;8346238;28;20105;-74
2021/01/16 15:37:18;;;;;;;21.67;10.60;;;-2.40;99.90;;;;;;8354768;28;20033;-74
2021/01/16 15:41:19;;;;;;;21.92;10.48;;;-2.60;99.90;;;;;;8360754;28;20025;-74
2021/01/16 15:45:20;;;;;;;16.60;7.18;;;-2.70;99.90;;;;;;8361708;28;20031;-74
2021/01/16 15:49:27;;;;;;;23.60;11.75;;;-2.80;99.90;;;;;;8394651;28;20372;-74
2021/01/16 15:53:29;;;;;;;25.90;13.40;;;-3.00;99.90;;;;;;8383249;28;20032;-74
2021/01/16 15:57:30;;;;;;;22.63;11.35;;;-3.10;99.90;;;;;;8372146;28;20028;-74
2021/01/16 16:01:39;;;;;;;26.70;12.55;;;-3.10;99.90;;;;;;8386818;28;20021;-74
2021/01/16 16:05:41;;;;;;;31.85;13.50;;;-3.20;99.90;;;;;;8394599;28;20028;-73
2021/01/16 16:09:42;;;;;;;23.35;12.57;;;-3.30;99.90;;;;;;8384627;28;20096;-73
2021/01/16 16:13:44;;;;;;;32.95;14.82;;;-3.30;99.90;;;;;;8362285;28;20548;-72
2021/01/16 16:17:45;;;;;;;24.75;9.85;;;-3.40;99.90;;;;;;8354369;28;20399;-74
2021/01/16 16:21:50;;;;;;;36.85;16.52;;;-3.50;99.90;;;;;;8354864;28;20112;-73
2021/01/16 16:25:51;;;;;;;24.25;12.35;;;-3.60;99.90;;;;;;8355686;28;20163;-73
2021/01/16 16:29:51;;;;;;;39.08;16.40;;;-3.60;99.90;;;;;;8353832;28;20029;-73
2021/01/16 16:33:52;;;;;;;45.05;18.58;;;-3.70;99.90;;;;;;8357001;28;20143;-73
2021/01/16 16:37:56;;;;;;;42.53;18.15;;;-3.70;99.90;;;;;;8363522;28;20025;-73
2021/01/16 16:41:57;;;;;;;14.25;7.15;;;-3.80;99.90;;;;;;8364503;28;20116;-72
2021/01/16 16:45:58;;;;;;;16.60;7.95;;;-3.60;99.90;;;;;;8358013;28;20033;-72
2021/01/16 16:49:59;;;;;;;35.83;16.05;;;-3.60;99.90;;;;;;8353294;28;20029;-74
2021/01/16 16:53:59;;;;;;;40.35;18.63;;;-3.60;99.90;;;;;;8356131;28;20510;-73
2021/01/16 16:58:00;;;;;;;17.83;9.35;;;-3.60;99.90;;;;;;8354835;28;20052;-74
2021/01/16 17:02:01;;;;;;;22.20;8.65;;;-3.50;99.90;;;;;;8353725;28;20025;-74
2021/01/16 17:06:01;;;;;;;38.08;14.52;;;-3.50;99.90;;;;;;8355977;28;20025;-75
2021/01/16 17:10:06;;;;;;;24.70;11.60;;;-3.50;99.90;;;;;;8367472;28;20021;-73
2021/01/16 17:14:07;;;;;;;34.75;15.65;;;-3.40;99.90;;;;;;8363049;28;20025;-75
2021/01/16 17:18:09;;;;;;;35.42;14.82;;;-3.50;99.90;;;;;;8355997;28;20024;-73
2021/01/16 17:22:15;;;;;;;26.05;11.10;;;-3.50;99.90;;;;;;8387777;28;20071;-73
2021/01/16 17:26:18;;;;;;;26.30;12.70;;;-3.50;99.90;;;;;;8363360;28;20052;-73
2021/01/16 17:30:21;;;;;;;37.92;17.45;;;-3.70;99.90;;;;;;8356710;28;20029;-73
2021/01/16 17:34:21;;;;;;;30.40;13.27;;;-3.70;99.90;;;;;;8355039;28;20029;-73
2021/01/16 17:38:22;;;;;;;26.15;11.68;;;-3.60;99.90;;;;;;8358142;28;20498;-73
2021/01/16 17:42:23;;;;;;;31.42;13.98;;;-3.60;99.90;;;;;;8352096;28;20025;-73
2021/01/16 17:46:23;;;;;;;31.58;15.30;;;-3.80;99.90;;;;;;8353006;28;20033;-74
2021/01/16 17:50:24;;;;;;;58.42;25.00;;;-3.70;99.90;;;;;;8352021;28;20494;-74
2021/01/16 17:54:25;;;;;;;38.17;17.70;;;-3.70;99.90;;;;;;8354083;28;20025;-74
2021/01/16 17:58:25;;;;;;;36.97;17.95;;;-3.60;99.90;;;;;;8353394;28;20040;-74
2021/01/16 18:02:26;;;;;;;43.63;20.20;;;-3.80;99.90;;;;;;8352015;28;20025;-74
2021/01/16 18:06:26;;;;;;;28.10;12.65;;;-3.70;99.90;;;;;;8351949;28;20048;-75
2021/01/16 18:10:27;;;;;;;27.42;14.40;;;-3.70;99.90;;;;;;8353131;28;20410;-74
2021/01/16 18:14:28;;;;;;;32.17;15.10;;;-3.70;99.90;;;;;;8348931;28;20048;-74
2021/01/16 18:18:29;;;;;;;34.88;16.38;;;-3.60;99.90;;;;;;8384916;28;20032;-74
2021/01/16 18:22:29;;;;;;;34.63;13.65;;;-3.60;99.90;;;;;;8355197;28;20502;-73
2021/01/16 18:26:30;;;;;;;39.92;16.33;;;-3.60;99.90;;;;;;8386303;28;21846;-74
2021/01/16 18:30:31;;;;;;;36.95;17.42;;;-3.50;99.90;;;;;;8354510;28;20040;-73
2021/01/16 18:34:31;;;;;;;37.70;16.35;;;-3.50;99.90;;;;;;8345313;28;20131;-73
2021/01/16 18:38:37;;;;;;;36.50;15.50;;;-3.50;99.90;;;;;;8345352;28;20061;-74
2021/01/16 18:42:38;;;;;;;33.08;14.43;;;-3.40;99.90;;;;;;8345425;28;20039;-73
2021/01/16 18:46:40;;;;;;;30.75;14.38;;;-3.50;99.90;;;;;;8352854;28;20644;-74
2021/01/16 18:50:41;;;;;;;28.10;10.85;;;-3.50;99.90;;;;;;8350771;28;20064;-74
2021/01/16 18:54:42;;;;;;;33.20;13.50;;;-3.50;99.90;;;;;;8353202;28;20036;-73
2021/01/16 18:58:43;;;;;;;36.40;15.98;;;-3.60;99.90;;;;;;8353124;28;20037;-73
2021/01/16 19:02:44;;;;;;;20.17;10.23;;;-3.60;99.90;;;;;;8351266;28;20103;-73
2021/01/16 19:06:44;;;;;;;30.45;12.82;;;-3.70;99.90;;;;;;8351301;28;20036;-73
2021/01/16 19:10:45;;;;;;;40.42;15.07;;;-3.70;99.90;;;;;;8348828;28;20029;-74
2021/01/16 19:14:46;;;;;;;30.73;13.07;;;-3.60;99.90;;;;;;8360974;28;20020;-76
2021/01/16 19:18:47;;;;;;;20.00;8.70;;;-3.70;99.90;;;;;;8362022;28;20089;-73
2021/01/16 19:22:54;;;;;;;26.50;11.52;;;-3.60;99.90;;;;;;8360387;28;20124;-74
2021/01/16 19:26:58;;;;;;;24.38;8.23;;;-3.60;99.90;;;;;;8358929;28;20060;-74
2021/01/16 19:31:00;;;;;;;28.33;11.95;;;-3.70;99.90;;;;;;8339068;28;20661;-73
2021/01/16 19:35:01;;;;;;;29.98;12.88;;;-3.70;99.90;;;;;;8349251;28;20033;-74
2021/01/16 19:39:04;;;;;;;14.98;6.10;;;-3.70;99.90;;;;;;8357437;28;20021;-74
2021/01/16 19:43:05;;;;;;;16.90;6.85;;;-3.80;99.90;;;;;;8365704;28;20129;-73
2021/01/16 19:47:07;;;;;;;24.63;9.75;;;-3.80;99.90;;;;;;8374231;28;20067;-74
2021/01/16 19:51:08;;;;;;;30.85;13.45;;;-3.70;99.90;;;;;;8362711;28;20028;-74
2021/01/16 19:55:10;;;;;;;26.55;10.77;;;-3.80;99.90;;;;;;8358397;28;20049;-74
2021/01/16 19:59:12;;;;;;;31.95;13.02;;;-3.70;99.90;;;;;;8356638;28;20408;-74
2021/01/16 20:03:13;;;;;;;39.53;15.48;;;-3.60;99.90;;;;;;8370465;28;20064;-75
2021/01/16 20:07:13;;;;;;;38.60;15.93;;;-3.60;99.90;;;;;;8342495;28;20037;-75
2021/01/16 20:11:17;;;;;;;30.50;12.88;;;-3.60;99.90;;;;;;8354967;28;20543;-74
2021/01/16 20:15:17;;;;;;;33.15;14.32;;;-3.50;99.90;;;;;;8357102;28;20039;-75
2021/01/16 20:19:19;;;;;;;27.88;11.18;;;-3.50;99.90;;;;;;8354929;28;20021;-74
2021/01/16 20:23:20;;;;;;;38.80;15.50;;;-3.50;99.90;;;;;;8351535;28;20436;-74
2021/01/16 20:27:20;;;;;;;40.00;15.63;;;-3.50;99.90;;;;;;8353565;28;20032;-74
2021/01/16 20:31:21;;;;;;;33.03;13.98;;;-3.50;99.90;;;;;;8352822;28;20025;-75
2021/01/16 20:35:21;;;;;;;31.17;12.88;;;-3.40;99.90;;;;;;8354583;28;22326;-74
2021/01/16 20:39:23;;;;;;;35.40;14.60;;;-3.40;99.90;;;;;;8355773;28;20033;-74